sensor_id;sensor_type;location;lat;lon;timestamp;P1;durP1;ratioP1;P2;durP2;ratioP2
21022;SDS011;10669;51.076;3.714;2022-07-23T00:01:19;7.30;;;5.47;;
21022;SDS011;10669;51.076;3.714;2022-07-23T00:03:45;10.43;;;5.70;;
21022;SDS011;10669;51.076;3.714;2022-07-23T00:06:11;7.30;;;5.50;;
21022;SDS011;10669;51.076;3.714;2022-07-23T00:08:38;11.43;;;5.23;;
21022;SDS011;10669;51.076;3.714;2022-07-23T00:11:03;12.60;;;5.87;;
21022;SDS011;10669;51.076;3.714;2022-07-23T00:13:29;7.27;;;5.10;;
21022;SDS011;10669;51.076;3.714;2022-07-23T00:15:55;11.30;;;5.67;;
21022;SDS011;10669;51.076;3.714;2022-07-23T00:18:20;7.00;;;5.50;;
21022;SDS011;10669;51.076;3.714;2022-07-23T00:20:46;9.10;;;5.50;;
21022;SDS011;10669;51.076;3.714;2022-07-23T00:23:12;7.73;;;5.33;;
21022;SDS011;10669;51.076;3.714;2022-07-23T00:25:38;10.30;;;5.20;;
21022;SDS011;10669;51.076;3.714;2022-07-23T00:28:03;9.53;;;5.30;;
21022;SDS011;10669;51.076;3.714;2022-07-23T00:30:30;8.37;;;4.93;;
21022;SDS011;10669;51.076;3.714;2022-07-23T00:32:58;7.43;;;5.57;;
21022;SDS011;10669;51.076;3.714;2022-07-23T00:35:26;9.70;;;5.30;;
21022;SDS011;10669;51.076;3.714;2022-07-23T00:37:53;7.43;;;5.40;;
21022;SDS011;10669;51.076;3.714;2022-07-23T00:40:19;7.57;;;5.63;;
21022;SDS011;10669;51.076;3.714;2022-07-23T00:42:45;7.33;;;5.60;;
21022;SDS011;10669;51.076;3.714;2022-07-23T00:45:11;8.57;;;5.80;;
21022;SDS011;10669;51.076;3.714;2022-07-23T00:47:37;12.57;;;5.97;;
21022;SDS011;10669;51.076;3.714;2022-07-23T00:50:06;9.13;;;5.83;;
21022;SDS011;10669;51.076;3.714;2022-07-23T00:52:34;12.33;;;5.90;;
21022;SDS011;10669;51.076;3.714;2022-07-23T00:55:00;8.80;;;6.27;;
21022;SDS011;10669;51.076;3.714;2022-07-23T00:57:26;10.17;;;6.43;;
21022;SDS011;10669;51.076;3.714;2022-07-23T00:59:51;10.17;;;5.67;;
21022;SDS011;10669;51.076;3.714;2022-07-23T01:02:17;9.80;;;6.47;;
21022;SDS011;10669;51.076;3.714;2022-07-23T01:04:43;10.80;;;6.03;;
21022;SDS011;10669;51.076;3.714;2022-07-23T01:07:09;8.73;;;6.17;;
21022;SDS011;10669;51.076;3.714;2022-07-23T01:09:35;12.73;;;6.57;;
21022;SDS011;10669;51.076;3.714;2022-07-23T01:12:01;9.27;;;7.20;;
21022;SDS011;10669;51.076;3.714;2022-07-23T01:14:28;9.27;;;6.57;;
21022;SDS011;10669;51.076;3.714;2022-07-23T01:16:53;9.93;;;6.90;;
21022;SDS011;10669;51.076;3.714;2022-07-23T01:19:19;9.50;;;6.73;;
21022;SDS011;10669;51.076;3.714;2022-07-23T01:21:48;13.07;;;6.90;;
21022;SDS011;10669;51.076;3.714;2022-07-23T01:24:15;16.43;;;7.47;;
21022;SDS011;10669;51.076;3.714;2022-07-23T01:26:44;13.67;;;7.37;;
21022;SDS011;10669;51.076;3.714;2022-07-23T01:29:11;14.43;;;7.40;;
21022;SDS011;10669;51.076;3.714;2022-07-23T01:31:37;11.27;;;7.40;;
21022;SDS011;10669;51.076;3.714;2022-07-23T01:34:03;9.27;;;7.50;;
21022;SDS011;10669;51.076;3.714;2022-07-23T01:36:29;11.90;;;7.47;;
21022;SDS011;10669;51.076;3.714;2022-07-23T01:38:55;11.07;;;7.83;;
21022;SDS011;10669;51.076;3.714;2022-07-23T01:41:21;14.90;;;7.97;;
21022;SDS011;10669;51.076;3.714;2022-07-23T01:43:47;14.47;;;8.13;;
21022;SDS011;10669;51.076;3.714;2022-07-23T01:46:12;14.07;;;7.57;;
21022;SDS011;10669;51.076;3.714;2022-07-23T01:48:38;15.47;;;7.20;;
21022;SDS011;10669;51.076;3.714;2022-07-23T01:51:04;14.53;;;7.70;;
21022;SDS011;10669;51.076;3.714;2022-07-23T01:53:30;12.93;;;7.70;;
21022;SDS011;10669;51.076;3.714;2022-07-23T01:55:58;11.87;;;7.30;;
21022;SDS011;10669;51.076;3.714;2022-07-23T01:58:25;11.57;;;7.67;;
21022;SDS011;10669;51.076;3.714;2022-07-23T02:00:51;12.33;;;8.23;;
21022;SDS011;10669;51.076;3.714;2022-07-23T02:03:17;14.30;;;8.53;;
21022;SDS011;10669;51.076;3.714;2022-07-23T02:05:43;12.87;;;8.23;;
21022;SDS011;10669;51.076;3.714;2022-07-23T02:08:09;12.27;;;8.13;;
21022;SDS011;10669;51.076;3.714;2022-07-23T02:10:34;10.30;;;7.90;;
21022;SDS011;10669;51.076;3.714;2022-07-23T02:13:00;14.33;;;7.17;;
21022;SDS011;10669;51.076;3.714;2022-07-23T02:15:25;13.80;;;7.93;;
21022;SDS011;10669;51.076;3.714;2022-07-23T02:17:51;12.60;;;7.40;;
21022;SDS011;10669;51.076;3.714;2022-07-23T02:20:17;9.50;;;8.20;;
21022;SDS011;10669;51.076;3.714;2022-07-23T02:22:42;11.30;;;7.57;;
21022;SDS011;10669;51.076;3.714;2022-07-23T02:25:08;10.43;;;7.80;;
21022;SDS011;10669;51.076;3.714;2022-07-23T02:27:35;10.50;;;7.43;;
21022;SDS011;10669;51.076;3.714;2022-07-23T02:30:02;8.87;;;7.43;;
21022;SDS011;10669;51.076;3.714;2022-07-23T02:32:28;13.60;;;7.73;;
21022;SDS011;10669;51.076;3.714;2022-07-23T02:34:53;12.23;;;7.57;;
21022;SDS011;10669;51.076;3.714;2022-07-23T02:37:19;11.40;;;7.67;;
21022;SDS011;10669;51.076;3.714;2022-07-23T02:39:45;12.50;;;8.00;;
21022;SDS011;10669;51.076;3.714;2022-07-23T02:42:11;11.73;;;7.57;;
21022;SDS011;10669;51.076;3.714;2022-07-23T02:44:37;16.10;;;7.70;;
21022;SDS011;10669;51.076;3.714;2022-07-23T02:47:02;11.63;;;7.13;;
21022;SDS011;10669;51.076;3.714;2022-07-23T02:49:28;12.53;;;7.23;;
21022;SDS011;10669;51.076;3.714;2022-07-23T02:51:54;8.70;;;6.97;;
21022;SDS011;10669;51.076;3.714;2022-07-23T02:54:19;9.77;;;7.53;;
21022;SDS011;10669;51.076;3.714;2022-07-23T02:56:45;13.73;;;7.70;;
21022;SDS011;10669;51.076;3.714;2022-07-23T02:59:10;11.23;;;7.07;;
21022;SDS011;10669;51.076;3.714;2022-07-23T03:01:36;11.93;;;7.40;;
21022;SDS011;10669;51.076;3.714;2022-07-23T03:04:02;12.33;;;7.20;;
21022;SDS011;10669;51.076;3.714;2022-07-23T03:06:28;13.37;;;8.87;;
21022;SDS011;10669;51.076;3.714;2022-07-23T03:08:53;14.67;;;10.10;;
21022;SDS011;10669;51.076;3.714;2022-07-23T03:11:19;15.57;;;10.67;;
21022;SDS011;10669;51.076;3.714;2022-07-23T03:13:45;14.07;;;9.37;;
21022;SDS011;10669;51.076;3.714;2022-07-23T03:16:10;16.50;;;9.90;;
21022;SDS011;10669;51.076;3.714;2022-07-23T03:18:36;11.67;;;9.87;;
21022;SDS011;10669;51.076;3.714;2022-07-23T03:21:02;16.27;;;11.40;;
21022;SDS011;10669;51.076;3.714;2022-07-23T03:23:28;18.40;;;11.40;;
21022;SDS011;10669;51.076;3.714;2022-07-23T03:25:53;19.37;;;11.60;;
21022;SDS011;10669;51.076;3.714;2022-07-23T03:28:19;19.67;;;12.30;;
21022;SDS011;10669;51.076;3.714;2022-07-23T03:30:45;13.83;;;11.27;;
21022;SDS011;10669;51.076;3.714;2022-07-23T03:33:17;14.67;;;11.43;;
21022;SDS011;10669;51.076;3.714;2022-07-23T03:35:44;14.40;;;10.70;;
21022;SDS011;10669;51.076;3.714;2022-07-23T03:38:11;17.37;;;12.00;;
21022;SDS011;10669;51.076;3.714;2022-07-23T03:40:37;15.33;;;10.77;;
21022;SDS011;10669;51.076;3.714;2022-07-23T03:43:02;15.53;;;10.37;;
21022;SDS011;10669;51.076;3.714;2022-07-23T03:45:28;15.00;;;10.97;;
21022;SDS011;10669;51.076;3.714;2022-07-23T03:47:54;16.90;;;11.17;;
21022;SDS011;10669;51.076;3.714;2022-07-23T03:50:19;14.33;;;10.90;;
21022;SDS011;10669;51.076;3.714;2022-07-23T03:52:45;16.57;;;11.20;;
21022;SDS011;10669;51.076;3.714;2022-07-23T03:55:11;19.63;;;11.47;;
21022;SDS011;10669;51.076;3.714;2022-07-23T03:57:37;16.80;;;11.67;;
21022;SDS011;10669;51.076;3.714;2022-07-23T04:00:06;20.73;;;11.53;;
21022;SDS011;10669;51.076;3.714;2022-07-23T04:02:34;16.27;;;11.53;;
21022;SDS011;10669;51.076;3.714;2022-07-23T04:05:00;16.47;;;11.30;;
21022;SDS011;10669;51.076;3.714;2022-07-23T04:07:26;16.53;;;11.13;;
21022;SDS011;10669;51.076;3.714;2022-07-23T04:09:52;16.43;;;11.37;;
21022;SDS011;10669;51.076;3.714;2022-07-23T04:12:18;16.07;;;10.50;;
21022;SDS011;10669;51.076;3.714;2022-07-23T04:14:44;14.47;;;10.70;;
21022;SDS011;10669;51.076;3.714;2022-07-23T04:17:10;18.07;;;11.03;;
21022;SDS011;10669;51.076;3.714;2022-07-23T04:19:36;13.23;;;10.60;;
21022;SDS011;10669;51.076;3.714;2022-07-23T04:22:05;16.37;;;10.67;;
21022;SDS011;10669;51.076;3.714;2022-07-23T04:24:31;17.40;;;10.20;;
21022;SDS011;10669;51.076;3.714;2022-07-23T04:26:57;16.17;;;10.90;;
21022;SDS011;10669;51.076;3.714;2022-07-23T04:29:23;17.67;;;10.27;;
21022;SDS011;10669;51.076;3.714;2022-07-23T04:31:49;14.17;;;10.83;;
21022;SDS011;10669;51.076;3.714;2022-07-23T04:34:14;16.27;;;10.03;;
21022;SDS011;10669;51.076;3.714;2022-07-23T04:36:40;16.00;;;11.10;;
21022;SDS011;10669;51.076;3.714;2022-07-23T04:39:05;14.07;;;9.50;;
21022;SDS011;10669;51.076;3.714;2022-07-23T04:41:31;15.27;;;10.60;;
21022;SDS011;10669;51.076;3.714;2022-07-23T04:43:57;13.43;;;9.00;;
21022;SDS011;10669;51.076;3.714;2022-07-23T04:46:22;14.17;;;9.80;;
21022;SDS011;10669;51.076;3.714;2022-07-23T04:48:48;13.03;;;8.93;;
21022;SDS011;10669;51.076;3.714;2022-07-23T04:51:14;14.37;;;8.87;;
21022;SDS011;10669;51.076;3.714;2022-07-23T04:53:39;12.60;;;9.07;;
21022;SDS011;10669;51.076;3.714;2022-07-23T04:56:05;15.33;;;9.40;;
21022;SDS011;10669;51.076;3.714;2022-07-23T04:58:31;17.10;;;9.30;;
21022;SDS011;10669;51.076;3.714;2022-07-23T05:00:57;13.43;;;8.60;;
21022;SDS011;10669;51.076;3.714;2022-07-23T05:03:23;11.93;;;10.00;;
21022;SDS011;10669;51.076;3.714;2022-07-23T05:05:48;13.63;;;8.53;;
21022;SDS011;10669;51.076;3.714;2022-07-23T05:08:14;14.30;;;9.43;;
21022;SDS011;10669;51.076;3.714;2022-07-23T05:10:40;11.13;;;8.40;;
21022;SDS011;10669;51.076;3.714;2022-07-23T05:13:05;14.13;;;9.77;;
21022;SDS011;10669;51.076;3.714;2022-07-23T05:15:31;17.43;;;9.97;;
21022;SDS011;10669;51.076;3.714;2022-07-23T05:17:57;11.57;;;8.40;;
21022;SDS011;10669;51.076;3.714;2022-07-23T05:20:22;19.17;;;9.40;;
21022;SDS011;10669;51.076;3.714;2022-07-23T05:22:48;10.03;;;8.80;;
21022;SDS011;10669;51.076;3.714;2022-07-23T05:25:13;12.20;;;8.67;;
21022;SDS011;10669;51.076;3.714;2022-07-23T05:27:39;12.43;;;8.57;;
21022;SDS011;10669;51.076;3.714;2022-07-23T05:30:05;12.07;;;8.53;;
21022;SDS011;10669;51.076;3.714;2022-07-23T05:32:31;14.67;;;9.37;;
21022;SDS011;10669;51.076;3.714;2022-07-23T05:34:57;13.02;;;9.65;;
21022;SDS011;10669;51.076;3.714;2022-07-23T05:37:23;14.00;;;10.37;;
21022;SDS011;10669;51.076;3.714;2022-07-23T05:39:48;17.40;;;11.43;;
21022;SDS011;10669;51.076;3.714;2022-07-23T05:42:14;14.52;;;9.85;;
21022;SDS011;10669;51.076;3.714;2022-07-23T05:44:40;13.48;;;10.13;;
21022;SDS011;10669;51.076;3.714;2022-07-23T05:47:05;14.32;;;10.80;;
21022;SDS011;10669;51.076;3.714;2022-07-23T05:49:31;17.00;;;10.25;;
21022;SDS011;10669;51.076;3.714;2022-07-23T05:51:56;15.15;;;9.35;;
21022;SDS011;10669;51.076;3.714;2022-07-23T05:54:22;12.43;;;8.75;;
21022;SDS011;10669;51.076;3.714;2022-07-23T05:56:47;15.57;;;8.48;;
21022;SDS011;10669;51.076;3.714;2022-07-23T05:59:15;14.10;;;8.65;;
21022;SDS011;10669;51.076;3.714;2022-07-23T06:01:40;12.80;;;8.90;;
21022;SDS011;10669;51.076;3.714;2022-07-23T06:04:06;14.27;;;8.83;;
21022;SDS011;10669;51.076;3.714;2022-07-23T06:06:32;14.43;;;8.73;;
21022;SDS011;10669;51.076;3.714;2022-07-23T06:08:58;13.73;;;8.77;;
21022;SDS011;10669;51.076;3.714;2022-07-23T06:11:24;13.20;;;8.40;;
21022;SDS011;10669;51.076;3.714;2022-07-23T06:13:49;11.80;;;7.90;;
21022;SDS011;10669;51.076;3.714;2022-07-23T06:16:15;13.90;;;7.97;;
21022;SDS011;10669;51.076;3.714;2022-07-23T06:18:40;12.37;;;8.47;;
21022;SDS011;10669;51.076;3.714;2022-07-23T06:21:06;13.57;;;8.83;;
21022;SDS011;10669;51.076;3.714;2022-07-23T06:23:32;13.93;;;8.80;;
21022;SDS011;10669;51.076;3.714;2022-07-23T06:25:57;15.07;;;8.80;;
21022;SDS011;10669;51.076;3.714;2022-07-23T06:28:23;13.07;;;9.00;;
21022;SDS011;10669;51.076;3.714;2022-07-23T06:30:48;11.63;;;8.53;;
21022;SDS011;10669;51.076;3.714;2022-07-23T06:33:14;11.60;;;8.43;;
21022;SDS011;10669;51.076;3.714;2022-07-23T06:35:40;11.52;;;8.00;;
21022;SDS011;10669;51.076;3.714;2022-07-23T06:38:06;10.35;;;7.68;;
21022;SDS011;10669;51.076;3.714;2022-07-23T06:40:31;13.23;;;9.10;;
21022;SDS011;10669;51.076;3.714;2022-07-23T06:42:57;11.00;;;8.45;;
21022;SDS011;10669;51.076;3.714;2022-07-23T06:45:22;11.40;;;7.88;;
21022;SDS011;10669;51.076;3.714;2022-07-23T06:47:48;12.93;;;8.35;;
21022;SDS011;10669;51.076;3.714;2022-07-23T06:50:14;14.55;;;7.50;;
21022;SDS011;10669;51.076;3.714;2022-07-23T06:52:39;11.52;;;7.25;;
21022;SDS011;10669;51.076;3.714;2022-07-23T06:55:05;12.00;;;7.75;;
21022;SDS011;10669;51.076;3.714;2022-07-23T06:57:31;10.45;;;7.68;;
21022;SDS011;10669;51.076;3.714;2022-07-23T06:59:57;8.68;;;7.20;;
21022;SDS011;10669;51.076;3.714;2022-07-23T07:02:22;15.13;;;7.10;;
21022;SDS011;10669;51.076;3.714;2022-07-23T07:04:48;12.27;;;6.97;;
21022;SDS011;10669;51.076;3.714;2022-07-23T07:07:14;10.13;;;6.95;;
21022;SDS011;10669;51.076;3.714;2022-07-23T07:09:40;8.50;;;6.88;;
21022;SDS011;10669;51.076;3.714;2022-07-23T07:12:06;13.38;;;7.53;;
21022;SDS011;10669;51.076;3.714;2022-07-23T07:14:31;13.18;;;7.97;;
21022;SDS011;10669;51.076;3.714;2022-07-23T07:16:57;12.90;;;7.75;;
21022;SDS011;10669;51.076;3.714;2022-07-23T07:19:23;9.07;;;7.03;;
21022;SDS011;10669;51.076;3.714;2022-07-23T07:21:48;25.17;;;7.10;;
21022;SDS011;10669;51.076;3.714;2022-07-23T07:24:14;10.80;;;7.45;;
21022;SDS011;10669;51.076;3.714;2022-07-23T07:26:39;13.55;;;8.15;;
21022;SDS011;10669;51.076;3.714;2022-07-23T07:29:05;11.65;;;7.97;;
21022;SDS011;10669;51.076;3.714;2022-07-23T07:31:31;14.93;;;8.05;;
21022;SDS011;10669;51.076;3.714;2022-07-23T07:33:57;16.20;;;8.48;;
21022;SDS011;10669;51.076;3.714;2022-07-23T07:36:23;10.82;;;7.63;;
21022;SDS011;10669;51.076;3.714;2022-07-23T07:38:49;14.27;;;7.88;;
21022;SDS011;10669;51.076;3.714;2022-07-23T07:41:14;10.45;;;7.43;;
21022;SDS011;10669;51.076;3.714;2022-07-23T07:43:40;9.20;;;7.50;;
21022;SDS011;10669;51.076;3.714;2022-07-23T07:46:06;11.18;;;6.82;;
21022;SDS011;10669;51.076;3.714;2022-07-23T07:48:35;11.50;;;7.60;;
21022;SDS011;10669;51.076;3.714;2022-07-23T07:51:01;11.10;;;7.25;;
21022;SDS011;10669;51.076;3.714;2022-07-23T07:53:29;14.45;;;7.50;;
21022;SDS011;10669;51.076;3.714;2022-07-23T07:55:54;15.10;;;7.85;;
21022;SDS011;10669;51.076;3.714;2022-07-23T07:58:20;15.10;;;7.18;;
21022;SDS011;10669;51.076;3.714;2022-07-23T08:00:45;14.48;;;7.50;;
21022;SDS011;10669;51.076;3.714;2022-07-23T08:03:11;297.83;;;28.23;;
21022;SDS011;10669;51.076;3.714;2022-07-23T08:05:37;21.50;;;8.00;;
21022;SDS011;10669;51.076;3.714;2022-07-23T08:08:02;15.70;;;7.93;;
21022;SDS011;10669;51.076;3.714;2022-07-23T08:10:29;32.30;;;8.15;;
21022;SDS011;10669;51.076;3.714;2022-07-23T08:12:56;12.40;;;6.78;;
21022;SDS011;10669;51.076;3.714;2022-07-23T08:15:23;10.43;;;7.25;;
21022;SDS011;10669;51.076;3.714;2022-07-23T08:17:51;10.18;;;6.68;;
21022;SDS011;10669;51.076;3.714;2022-07-23T08:20:18;17.50;;;7.60;;
21022;SDS011;10669;51.076;3.714;2022-07-23T08:22:46;9.10;;;5.82;;
21022;SDS011;10669;51.076;3.714;2022-07-23T08:25:11;45.22;;;9.40;;
21022;SDS011;10669;51.076;3.714;2022-07-23T08:27:38;39.90;;;8.75;;
21022;SDS011;10669;51.076;3.714;2022-07-23T08:30:04;13.80;;;7.20;;
21022;SDS011;10669;51.076;3.714;2022-07-23T08:32:30;17.67;;;7.20;;
21022;SDS011;10669;51.076;3.714;2022-07-23T08:34:55;12.82;;;6.97;;
21022;SDS011;10669;51.076;3.714;2022-07-23T08:37:21;10.57;;;6.32;;
21022;SDS011;10669;51.076;3.714;2022-07-23T08:39:46;7.93;;;6.50;;
21022;SDS011;10669;51.076;3.714;2022-07-23T08:42:13;10.93;;;6.28;;
21022;SDS011;10669;51.076;3.714;2022-07-23T08:44:40;8.95;;;6.20;;
21022;SDS011;10669;51.076;3.714;2022-07-23T08:47:10;9.20;;;6.20;;
21022;SDS011;10669;51.076;3.714;2022-07-23T08:49:37;8.20;;;6.43;;
21022;SDS011;10669;51.076;3.714;2022-07-23T08:52:04;13.68;;;6.18;;
21022;SDS011;10669;51.076;3.714;2022-07-23T08:54:31;10.93;;;5.93;;
21022;SDS011;10669;51.076;3.714;2022-07-23T08:56:56;108.20;;;13.13;;
21022;SDS011;10669;51.076;3.714;2022-07-23T08:59:22;18.83;;;5.78;;
21022;SDS011;10669;51.076;3.714;2022-07-23T09:01:48;229.93;;;24.17;;
21022;SDS011;10669;51.076;3.714;2022-07-23T09:04:13;96.82;;;13.07;;
21022;SDS011;10669;51.076;3.714;2022-07-23T09:06:39;27.52;;;7.53;;
21022;SDS011;10669;51.076;3.714;2022-07-23T09:09:38;12.77;;;4.97;;
21022;SDS011;10669;51.076;3.714;2022-07-23T09:12:02;19.25;;;5.57;;
21022;SDS011;10669;51.076;3.714;2022-07-23T09:14:44;8.23;;;4.18;;
21022;SDS011;10669;51.076;3.714;2022-07-23T09:17:14;14.93;;;6.13;;
21022;SDS011;10669;51.076;3.714;2022-07-23T09:19:41;10.77;;;5.88;;
21022;SDS011;10669;51.076;3.714;2022-07-23T09:22:24;7.97;;;4.68;;
21022;SDS011;10669;51.076;3.714;2022-07-23T09:27:50;28.25;;;6.25;;
21022;SDS011;10669;51.076;3.714;2022-07-23T09:30:27;302.80;;;31.63;;
21022;SDS011;10669;51.076;3.714;2022-07-23T09:33:06;93.68;;;14.30;;
21022;SDS011;10669;51.076;3.714;2022-07-23T09:38:15;18.52;;;5.00;;
21022;SDS011;10669;51.076;3.714;2022-07-23T09:40:41;9.82;;;4.68;;
21022;SDS011;10669;51.076;3.714;2022-07-23T09:43:08;8.27;;;5.07;;
21022;SDS011;10669;51.076;3.714;2022-07-23T09:45:34;6.30;;;4.78;;
21022;SDS011;10669;51.076;3.714;2022-07-23T09:48:10;6.82;;;4.78;;
21022;SDS011;10669;51.076;3.714;2022-07-23T09:50:37;7.53;;;4.45;;
21022;SDS011;10669;51.076;3.714;2022-07-23T09:53:03;11.98;;;5.40;;
21022;SDS011;10669;51.076;3.714;2022-07-23T09:55:33;21.83;;;6.75;;
21022;SDS011;10669;51.076;3.714;2022-07-23T09:58:01;12.55;;;5.78;;
21022;SDS011;10669;51.076;3.714;2022-07-23T10:00:29;5.70;;;4.15;;
21022;SDS011;10669;51.076;3.714;2022-07-23T10:02:56;7.75;;;4.32;;
21022;SDS011;10669;51.076;3.714;2022-07-23T10:05:22;10.98;;;4.10;;
21022;SDS011;10669;51.076;3.714;2022-07-23T10:07:49;7.18;;;4.00;;
21022;SDS011;10669;51.076;3.714;2022-07-23T10:10:16;5.55;;;3.83;;
21022;SDS011;10669;51.076;3.714;2022-07-23T10:12:43;5.13;;;3.47;;
21022;SDS011;10669;51.076;3.714;2022-07-23T10:15:27;8.05;;;4.07;;
21022;SDS011;10669;51.076;3.714;2022-07-23T10:17:54;6.65;;;3.40;;
21022;SDS011;10669;51.076;3.714;2022-07-23T10:20:20;5.95;;;3.65;;
21022;SDS011;10669;51.076;3.714;2022-07-23T10:23:00;6.85;;;4.22;;
21022;SDS011;10669;51.076;3.714;2022-07-23T10:31:42;7.75;;;5.65;;
21022;SDS011;10669;51.076;3.714;2022-07-23T10:37:12;7.82;;;5.03;;
21022;SDS011;10669;51.076;3.714;2022-07-23T10:42:42;6.57;;;3.97;;
21022;SDS011;10669;51.076;3.714;2022-07-23T10:47:53;12.82;;;4.45;;
21022;SDS011;10669;51.076;3.714;2022-07-23T10:50:23;7.68;;;4.10;;
21022;SDS011;10669;51.076;3.714;2022-07-23T10:53:16;9.00;;;4.60;;
21022;SDS011;10669;51.076;3.714;2022-07-23T10:55:46;5.35;;;3.65;;
21022;SDS011;10669;51.076;3.714;2022-07-23T10:58:21;8.30;;;4.55;;
21022;SDS011;10669;51.076;3.714;2022-07-23T11:03:58;8.15;;;4.97;;
21022;SDS011;10669;51.076;3.714;2022-07-23T11:06:25;7.40;;;4.38;;
21022;SDS011;10669;51.076;3.714;2022-07-23T11:09:25;7.80;;;3.30;;
21022;SDS011;10669;51.076;3.714;2022-07-23T11:17:31;8.27;;;5.80;;
21022;SDS011;10669;51.076;3.714;2022-07-23T11:22:40;3.75;;;3.20;;
21022;SDS011;10669;51.076;3.714;2022-07-23T11:27:55;8.27;;;3.92;;
21022;SDS011;10669;51.076;3.714;2022-07-23T11:35:38;8.38;;;3.95;;
21022;SDS011;10669;51.076;3.714;2022-07-23T11:40:40;6.82;;;3.67;;
21022;SDS011;10669;51.076;3.714;2022-07-23T11:43:09;6.53;;;3.88;;
21022;SDS011;10669;51.076;3.714;2022-07-23T11:45:37;6.70;;;3.50;;
21022;SDS011;10669;51.076;3.714;2022-07-23T11:48:05;3.60;;;3.20;;
21022;SDS011;10669;51.076;3.714;2022-07-23T11:50:32;4.78;;;3.05;;
21022;SDS011;10669;51.076;3.714;2022-07-23T11:52:59;5.82;;;3.30;;
21022;SDS011;10669;51.076;3.714;2022-07-23T11:55:25;4.90;;;3.42;;
21022;SDS011;10669;51.076;3.714;2022-07-23T11:57:52;6.95;;;3.33;;
21022;SDS011;10669;51.076;3.714;2022-07-23T12:00:20;3.75;;;2.55;;
21022;SDS011;10669;51.076;3.714;2022-07-23T12:02:55;3.53;;;2.95;;
21022;SDS011;10669;51.076;3.714;2022-07-23T12:05:24;3.05;;;2.63;;
21022;SDS011;10669;51.076;3.714;2022-07-23T12:07:54;4.18;;;2.33;;
21022;SDS011;10669;51.076;3.714;2022-07-23T12:10:22;5.90;;;3.17;;
21022;SDS011;10669;51.076;3.714;2022-07-23T12:12:53;4.43;;;2.60;;
21022;SDS011;10669;51.076;3.714;2022-07-23T12:15:21;5.03;;;2.90;;
21022;SDS011;10669;51.076;3.714;2022-07-23T12:17:49;5.15;;;2.22;;
21022;SDS011;10669;51.076;3.714;2022-07-23T12:20:17;4.50;;;2.90;;
21022;SDS011;10669;51.076;3.714;2022-07-23T12:22:46;4.05;;;2.67;;
21022;SDS011;10669;51.076;3.714;2022-07-23T12:25:17;3.53;;;2.70;;
21022;SDS011;10669;51.076;3.714;2022-07-23T12:27:44;4.32;;;2.72;;
21022;SDS011;10669;51.076;3.714;2022-07-23T12:30:17;5.07;;;2.30;;
21022;SDS011;10669;51.076;3.714;2022-07-23T12:32:45;3.75;;;2.42;;
21022;SDS011;10669;51.076;3.714;2022-07-23T12:35:11;4.60;;;3.08;;
21022;SDS011;10669;51.076;3.714;2022-07-23T12:37:39;4.22;;;2.47;;
21022;SDS011;10669;51.076;3.714;2022-07-23T12:48:28;6.40;;;3.13;;
21022;SDS011;10669;51.076;3.714;2022-07-23T12:51:01;3.83;;;2.55;;
21022;SDS011;10669;51.076;3.714;2022-07-23T12:53:48;6.32;;;2.78;;
21022;SDS011;10669;51.076;3.714;2022-07-23T12:56:18;5.40;;;3.03;;
21022;SDS011;10669;51.076;3.714;2022-07-23T13:01:33;4.03;;;2.50;;
21022;SDS011;10669;51.076;3.714;2022-07-23T13:06:34;3.08;;;2.70;;
21022;SDS011;10669;51.076;3.714;2022-07-23T13:09:05;5.07;;;2.70;;
21022;SDS011;10669;51.076;3.714;2022-07-23T13:11:32;4.60;;;3.15;;
21022;SDS011;10669;51.076;3.714;2022-07-23T13:13:58;8.20;;;2.50;;
21022;SDS011;10669;51.076;3.714;2022-07-23T13:16:25;3.03;;;2.50;;
21022;SDS011;10669;51.076;3.714;2022-07-23T13:18:51;5.63;;;2.75;;
21022;SDS011;10669;51.076;3.714;2022-07-23T13:21:17;6.55;;;3.28;;
21022;SDS011;10669;51.076;3.714;2022-07-23T13:23:43;3.92;;;2.67;;
21022;SDS011;10669;51.076;3.714;2022-07-23T13:26:09;7.07;;;3.47;;
21022;SDS011;10669;51.076;3.714;2022-07-23T13:28:35;9.80;;;3.53;;
21022;SDS011;10669;51.076;3.714;2022-07-23T13:31:00;6.05;;;3.30;;
21022;SDS011;10669;51.076;3.714;2022-07-23T13:33:26;9.75;;;3.38;;
21022;SDS011;10669;51.076;3.714;2022-07-23T13:35:52;6.18;;;3.72;;
21022;SDS011;10669;51.076;3.714;2022-07-23T13:38:19;5.40;;;3.47;;
21022;SDS011;10669;51.076;3.714;2022-07-23T13:40:46;6.03;;;3.30;;
21022;SDS011;10669;51.076;3.714;2022-07-23T13:43:16;6.57;;;3.75;;
21022;SDS011;10669;51.076;3.714;2022-07-23T13:45:43;7.78;;;3.50;;
21022;SDS011;10669;51.076;3.714;2022-07-23T13:48:10;4.78;;;3.97;;
21022;SDS011;10669;51.076;3.714;2022-07-23T13:50:37;5.43;;;3.35;;
21022;SDS011;10669;51.076;3.714;2022-07-23T13:53:05;4.28;;;3.78;;
21022;SDS011;10669;51.076;3.714;2022-07-23T13:55:33;4.43;;;3.33;;
21022;SDS011;10669;51.076;3.714;2022-07-23T13:57:59;5.82;;;2.80;;
21022;SDS011;10669;51.076;3.714;2022-07-23T14:00:26;6.03;;;4.00;;
21022;SDS011;10669;51.076;3.714;2022-07-23T14:02:52;6.43;;;3.53;;
21022;SDS011;10669;51.076;3.714;2022-07-23T14:05:18;5.53;;;4.10;;
21022;SDS011;10669;51.076;3.714;2022-07-23T14:07:45;4.93;;;3.42;;
21022;SDS011;10669;51.076;3.714;2022-07-23T14:10:12;7.57;;;3.47;;
21022;SDS011;10669;51.076;3.714;2022-07-23T14:12:37;4.10;;;3.72;;
21022;SDS011;10669;51.076;3.714;2022-07-23T14:15:04;7.57;;;4.75;;
21022;SDS011;10669;51.076;3.714;2022-07-23T14:17:31;5.78;;;3.15;;
21022;SDS011;10669;51.076;3.714;2022-07-23T14:19:57;7.65;;;3.72;;
21022;SDS011;10669;51.076;3.714;2022-07-23T14:22:23;4.38;;;3.60;;
21022;SDS011;10669;51.076;3.714;2022-07-23T14:24:49;8.45;;;3.92;;
21022;SDS011;10669;51.076;3.714;2022-07-23T14:27:16;8.65;;;3.88;;
21022;SDS011;10669;51.076;3.714;2022-07-23T14:29:42;4.43;;;3.70;;
21022;SDS011;10669;51.076;3.714;2022-07-23T14:32:08;7.45;;;4.10;;
21022;SDS011;10669;51.076;3.714;2022-07-23T14:34:34;5.00;;;4.07;;
21022;SDS011;10669;51.076;3.714;2022-07-23T14:37:00;8.68;;;4.28;;
21022;SDS011;10669;51.076;3.714;2022-07-23T14:39:26;4.68;;;3.45;;
21022;SDS011;10669;51.076;3.714;2022-07-23T14:41:52;4.53;;;3.47;;
21022;SDS011;10669;51.076;3.714;2022-07-23T14:44:18;5.07;;;4.20;;
21022;SDS011;10669;51.076;3.714;2022-07-23T14:46:44;5.45;;;4.22;;
21022;SDS011;10669;51.076;3.714;2022-07-23T14:49:09;7.30;;;4.05;;
21022;SDS011;10669;51.076;3.714;2022-07-23T14:51:35;5.30;;;4.25;;
21022;SDS011;10669;51.076;3.714;2022-07-23T14:54:01;6.13;;;4.30;;
21022;SDS011;10669;51.076;3.714;2022-07-23T14:56:28;6.55;;;4.43;;
21022;SDS011;10669;51.076;3.714;2022-07-23T14:58:53;8.02;;;4.40;;
21022;SDS011;10669;51.076;3.714;2022-07-23T15:01:21;7.72;;;4.80;;
21022;SDS011;10669;51.076;3.714;2022-07-23T15:03:47;8.98;;;4.57;;
21022;SDS011;10669;51.076;3.714;2022-07-23T15:06:13;7.63;;;4.03;;
21022;SDS011;10669;51.076;3.714;2022-07-23T15:08:39;6.30;;;4.38;;
21022;SDS011;10669;51.076;3.714;2022-07-23T15:11:04;5.10;;;3.72;;
21022;SDS011;10669;51.076;3.714;2022-07-23T15:13:30;7.05;;;4.50;;
21022;SDS011;10669;51.076;3.714;2022-07-23T15:15:56;8.43;;;4.38;;
21022;SDS011;10669;51.076;3.714;2022-07-23T15:18:22;5.80;;;4.85;;
21022;SDS011;10669;51.076;3.714;2022-07-23T15:20:47;5.22;;;4.60;;
21022;SDS011;10669;51.076;3.714;2022-07-23T15:23:13;6.75;;;5.05;;
21022;SDS011;10669;51.076;3.714;2022-07-23T15:25:39;6.80;;;5.38;;
21022;SDS011;10669;51.076;3.714;2022-07-23T15:28:04;7.85;;;5.13;;
21022;SDS011;10669;51.076;3.714;2022-07-23T15:30:30;6.30;;;5.03;;
21022;SDS011;10669;51.076;3.714;2022-07-23T15:32:55;7.63;;;5.47;;